sensor_id;sensor_type;location;lat;lon;timestamp;pressure;altitude;pressure_sealevel;temperature;humidity
35778;BME280;21899;42.662;23.316;2024-03-08T00:01:09;94590.88;;;4.08;83.92
35778;BME280;21899;42.662;23.316;2024-03-08T00:03:35;94606.31;;;4.25;84.27
35778;BME280;21899;42.662;23.316;2024-03-08T00:06:00;94608.41;;;4.18;83.62
35778;BME280;21899;42.662;23.316;2024-03-08T00:08:26;94607.34;;;4.15;83.58
35778;BME280;21899;42.662;23.316;2024-03-08T00:10:51;94609.28;;;4.27;83.64
35778;BME280;21899;42.662;23.316;2024-03-08T00:13:17;94602.56;;;4.35;82.97
35778;BME280;21899;42.662;23.316;2024-03-08T00:15:42;94589.50;;;4.28;82.32
35778;BME280;21899;42.662;23.316;2024-03-08T00:18:08;94604.47;;;4.35;82.24
35778;BME280;21899;42.662;23.316;2024-03-08T00:20:33;94603.09;;;4.30;82.65
35778;BME280;21899;42.662;23.316;2024-03-08T00:22:58;94588.84;;;4.24;83.08
35778;BME280;21899;42.662;23.316;2024-03-08T00:25:24;94589.59;;;4.25;83.01
35778;BME280;21899;42.662;23.316;2024-03-08T00:27:50;94586.72;;;4.19;82.46
35778;BME280;21899;42.662;23.316;2024-03-08T00:30:15;94585.25;;;4.18;82.52
35778;BME280;21899;42.662;23.316;2024-03-08T00:32:41;94595.97;;;4.15;82.96
35778;BME280;21899;42.662;23.316;2024-03-08T00:35:06;94568.72;;;3.86;82.90
35778;BME280;21899;42.662;23.316;2024-03-08T00:37:32;94581.69;;;3.84;84.45
35778;BME280;21899;42.662;23.316;2024-03-08T00:39:59;94583.75;;;3.63;85.33
35778;BME280;21899;42.662;23.316;2024-03-08T00:42:25;94579.56;;;3.50;86.04
35778;BME280;21899;42.662;23.316;2024-03-08T00:44:50;94588.19;;;3.54;86.05
35778;BME280;21899;42.662;23.316;2024-03-08T00:47:16;94583.50;;;3.45;86.07
35778;BME280;21899;42.662;23.316;2024-03-08T00:49:42;94565.66;;;3.46;86.04
35778;BME280;21899;42.662;23.316;2024-03-08T00:52:08;94577.59;;;3.66;85.34
35778;BME280;21899;42.662;23.316;2024-03-08T00:54:34;94575.22;;;3.56;86.27
35778;BME280;21899;42.662;23.316;2024-03-08T00:57:01;94570.66;;;3.44;86.24
35778;BME280;21899;42.662;23.316;2024-03-08T00:59:28;94561.00;;;3.50;86.24
35778;BME280;21899;42.662;23.316;2024-03-08T01:01:54;94565.94;;;3.64;85.53
35778;BME280;21899;42.662;23.316;2024-03-08T01:04:20;94562.72;;;3.56;86.08
35778;BME280;21899;42.662;23.316;2024-03-08T01:06:46;94560.28;;;3.62;85.64
35778;BME280;21899;42.662;23.316;2024-03-08T01:09:13;94548.09;;;3.36;86.62
35778;BME280;21899;42.662;23.316;2024-03-08T01:11:38;94560.31;;;3.33;86.51
35778;BME280;21899;42.662;23.316;2024-03-08T01:14:05;94553.41;;;3.07;86.51
35778;BME280;21899;42.662;23.316;2024-03-08T01:16:31;94569.38;;;3.20;87.43
35778;BME280;21899;42.662;23.316;2024-03-08T01:18:58;94563.09;;;3.14;87.75
35778;BME280;21899;42.662;23.316;2024-03-08T01:21:24;94567.47;;;3.20;87.57
35778;BME280;21899;42.662;23.316;2024-03-08T01:23:49;94563.22;;;3.23;87.45
35778;BME280;21899;42.662;23.316;2024-03-08T01:26:15;94541.59;;;3.24;87.50
35778;BME280;21899;42.662;23.316;2024-03-08T01:28:41;94540.88;;;3.36;87.62
35778;BME280;21899;42.662;23.316;2024-03-08T01:31:10;94535.09;;;3.25;87.11
35778;BME280;21899;42.662;23.316;2024-03-08T01:33:35;94543.00;;;3.29;87.79
35778;BME280;21899;42.662;23.316;2024-03-08T01:36:01;94539.34;;;3.23;87.23
35778;BME280;21899;42.662;23.316;2024-03-08T01:38:27;94549.44;;;3.28;87.42
35778;BME280;21899;42.662;23.316;2024-03-08T01:40:53;94549.03;;;3.29;86.68
35778;BME280;21899;42.662;23.316;2024-03-08T01:43:25;94545.31;;;3.27;86.40
35778;BME280;21899;42.662;23.316;2024-03-08T01:45:52;94538.94;;;3.24;87.33
35778;BME280;21899;42.662;23.316;2024-03-08T01:48:18;94548.09;;;3.36;86.71
35778;BME280;21899;42.662;23.316;2024-03-08T01:50:45;94525.75;;;3.21;86.65
35778;BME280;21899;42.662;23.316;2024-03-08T01:53:11;94544.47;;;3.30;86.80
35778;BME280;21899;42.662;23.316;2024-03-08T01:55:40;94525.34;;;3.22;86.20
35778;BME280;21899;42.662;23.316;2024-03-08T01:58:09;94538.16;;;3.40;86.28
35778;BME280;21899;42.662;23.316;2024-03-08T02:00:36;94521.94;;;3.22;85.09
35778;BME280;21899;42.662;23.316;2024-03-08T02:03:05;94530.13;;;3.27;86.28
35778;BME280;21899;42.662;23.316;2024-03-08T02:05:31;94537.47;;;3.36;85.77
35778;BME280;21899;42.662;23.316;2024-03-08T02:07:57;94515.78;;;3.25;85.20
35778;BME280;21899;42.662;23.316;2024-03-08T02:10:23;94531.16;;;3.46;85.26
35778;BME280;21899;42.662;23.316;2024-03-08T02:12:48;94523.09;;;3.49;84.89
35778;BME280;21899;42.662;23.316;2024-03-08T02:15:14;94533.72;;;3.62;84.67
35778;BME280;21899;42.662;23.316;2024-03-08T02:17:40;94538.00;;;3.72;84.41
35778;BME280;21899;42.662;23.316;2024-03-08T02:20:07;94520.69;;;3.67;84.22
35778;BME280;21899;42.662;23.316;2024-03-08T02:22:34;94546.31;;;3.87;84.61
35778;BME280;21899;42.662;23.316;2024-03-08T02:25:00;94541.84;;;3.96;84.32
35778;BME280;21899;42.662;23.316;2024-03-08T02:27:27;94542.50;;;4.00;84.18
35778;BME280;21899;42.662;23.316;2024-03-08T02:29:55;94549.38;;;3.85;82.70
35778;BME280;21899;42.662;23.316;2024-03-08T02:32:24;94537.69;;;3.83;82.28
35778;BME280;21899;42.662;23.316;2024-03-08T02:34:50;94544.00;;;4.01;83.87
35778;BME280;21899;42.662;23.316;2024-03-08T02:37:16;94546.97;;;4.03;84.59
35778;BME280;21899;42.662;23.316;2024-03-08T02:39:42;94548.56;;;4.13;84.20
35778;BME280;21899;42.662;23.316;2024-03-08T02:42:08;94552.91;;;4.20;83.41
35778;BME280;21899;42.662;23.316;2024-03-08T02:44:33;94554.19;;;4.28;83.45
35778;BME280;21899;42.662;23.316;2024-03-08T02:46:59;94555.38;;;4.14;83.59
35778;BME280;21899;42.662;23.316;2024-03-08T02:49:26;94556.13;;;4.27;80.38
35778;BME280;21899;42.662;23.316;2024-03-08T02:51:52;94538.78;;;4.10;78.95
35778;BME280;21899;42.662;23.316;2024-03-08T02:54:19;94557.38;;;3.98;77.16
35778;BME280;21899;42.662;23.316;2024-03-08T02:56:45;94535.28;;;3.88;76.45
35778;BME280;21899;42.662;23.316;2024-03-08T02:59:16;94560.78;;;3.98;75.10
35778;BME280;21899;42.662;23.316;2024-03-08T03:01:43;94552.69;;;3.89;75.92
35778;BME280;21899;42.662;23.316;2024-03-08T03:04:09;94552.03;;;3.85;76.49
35778;BME280;21899;42.662;23.316;2024-03-08T03:06:34;94558.00;;;3.89;75.46
35778;BME280;21899;42.662;23.316;2024-03-08T03:09:01;94559.50;;;3.90;75.48
35778;BME280;21899;42.662;23.316;2024-03-08T03:11:26;94564.81;;;3.90;75.64
35778;BME280;21899;42.662;23.316;2024-03-08T03:13:52;94562.47;;;3.92;75.01
35778;BME280;21899;42.662;23.316;2024-03-08T03:16:20;94556.53;;;3.88;74.95
35778;BME280;21899;42.662;23.316;2024-03-08T03:18:46;94567.47;;;4.03;75.12
35778;BME280;21899;42.662;23.316;2024-03-08T03:21:13;94568.75;;;3.98;75.04
35778;BME280;21899;42.662;23.316;2024-03-08T03:23:42;94568.88;;;4.07;74.50
35778;BME280;21899;42.662;23.316;2024-03-08T03:26:09;94571.16;;;3.93;74.73
35778;BME280;21899;42.662;23.316;2024-03-08T03:28:37;94568.63;;;3.89;74.49
35778;BME280;21899;42.662;23.316;2024-03-08T03:31:06;94574.50;;;3.97;74.26
35778;BME280;21899;42.662;23.316;2024-03-08T03:33:31;94566.28;;;3.91;72.78
35778;BME280;21899;42.662;23.316;2024-03-08T03:35:59;94579.25;;;3.89;73.23
35778;BME280;21899;42.662;23.316;2024-03-08T03:38:26;94569.25;;;3.81;73.85
35778;BME280;21899;42.662;23.316;2024-03-08T03:40:53;94577.66;;;3.92;74.22
35778;BME280;21899;42.662;23.316;2024-03-08T03:43:23;94579.56;;;3.91;73.65
35778;BME280;21899;42.662;23.316;2024-03-08T03:45:48;94587.00;;;3.84;73.06
35778;BME280;21899;42.662;23.316;2024-03-08T03:48:14;94589.88;;;3.89;72.84
35778;BME280;21899;42.662;23.316;2024-03-08T03:50:39;94585.47;;;3.70;74.56
35778;BME280;21899;42.662;23.316;2024-03-08T03:53:05;94578.22;;;3.58;74.15
35778;BME280;21899;42.662;23.316;2024-03-08T03:55:33;94591.25;;;3.81;73.56
35778;BME280;21899;42.662;23.316;2024-03-08T03:57:59;94591.66;;;3.79;72.34
35778;BME280;21899;42.662;23.316;2024-03-08T04:00:26;94596.44;;;3.72;72.27
35778;BME280;21899;42.662;23.316;2024-03-08T04:02:52;94586.31;;;3.67;72.45
35778;BME280;21899;42.662;23.316;2024-03-08T04:05:18;94594.53;;;3.72;73.40
35778;BME280;21899;42.662;23.316;2024-03-08T04:07:43;94600.09;;;3.62;73.93
35778;BME280;21899;42.662;23.316;2024-03-08T04:10:11;94608.31;;;3.67;73.57
35778;BME280;21899;42.662;23.316;2024-03-08T04:12:37;94593.19;;;3.64;73.70
35778;BME280;21899;42.662;23.316;2024-03-08T04:15:03;94609.19;;;3.77;72.99
35778;BME280;21899;42.662;23.316;2024-03-08T04:17:30;94598.63;;;3.61;73.46
35778;BME280;21899;42.662;23.316;2024-03-08T04:19:55;94609.38;;;3.70;74.21
35778;BME280;21899;42.662;23.316;2024-03-08T04:22:21;94617.78;;;3.68;74.20
35778;BME280;21899;42.662;23.316;2024-03-08T04:24:46;94601.16;;;3.36;75.55
35778;BME280;21899;42.662;23.316;2024-03-08T04:27:13;94624.84;;;3.59;74.43
35778;BME280;21899;42.662;23.316;2024-03-08T04:29:39;94623.16;;;3.65;74.42
35778;BME280;21899;42.662;23.316;2024-03-08T04:32:05;94620.28;;;3.59;74.48
35778;BME280;21899;42.662;23.316;2024-03-08T04:34:32;94620.47;;;3.52;74.54
35778;BME280;21899;42.662;23.316;2024-03-08T04:36:57;94635.78;;;3.61;74.83
35778;BME280;21899;42.662;23.316;2024-03-08T04:39:23;94625.69;;;3.56;74.43
35778;BME280;21899;42.662;23.316;2024-03-08T04:41:49;94630.81;;;3.63;74.57
35778;BME280;21899;42.662;23.316;2024-03-08T04:44:15;94621.53;;;3.55;76.00
35778;BME280;21899;42.662;23.316;2024-03-08T04:46:42;94636.16;;;3.47;75.99
35778;BME280;21899;42.662;23.316;2024-03-08T04:49:08;94636.16;;;3.47;76.54
35778;BME280;21899;42.662;23.316;2024-03-08T04:51:33;94636.75;;;3.38;76.93
35778;BME280;21899;42.662;23.316;2024-03-08T04:53:59;94636.19;;;3.31;77.28
35778;BME280;21899;42.662;23.316;2024-03-08T04:56:25;94636.28;;;3.27;78.04
35778;BME280;21899;42.662;23.316;2024-03-08T04:58:51;94642.50;;;3.21;77.86
35778;BME280;21899;42.662;23.316;2024-03-08T05:01:16;94644.97;;;3.28;78.66
35778;BME280;21899;42.662;23.316;2024-03-08T05:03:42;94618.22;;;3.22;77.83
35778;BME280;21899;42.662;23.316;2024-03-08T05:06:08;94649.78;;;3.33;77.64
35778;BME280;21899;42.662;23.316;2024-03-08T05:08:33;94648.28;;;3.32;78.74
35778;BME280;21899;42.662;23.316;2024-03-08T05:10:59;94651.28;;;3.34;79.19
35778;BME280;21899;42.662;23.316;2024-03-08T05:13:30;94648.78;;;3.43;77.99
35778;BME280;21899;42.662;23.316;2024-03-08T05:15:56;94645.28;;;3.46;77.78
35778;BME280;21899;42.662;23.316;2024-03-08T05:18:23;94655.63;;;3.56;78.00
35778;BME280;21899;42.662;23.316;2024-03-08T05:20:49;94655.53;;;3.60;77.96
35778;BME280;21899;42.662;23.316;2024-03-08T05:23:16;94662.38;;;3.45;77.85
35778;BME280;21899;42.662;23.316;2024-03-08T05:25:41;94661.56;;;3.32;79.25
35778;BME280;21899;42.662;23.316;2024-03-08T05:28:07;94660.47;;;3.45;78.54
35778;BME280;21899;42.662;23.316;2024-03-08T05:30:34;94669.34;;;3.55;78.71
35778;BME280;21899;42.662;23.316;2024-03-08T05:33:01;94682.41;;;3.62;78.37
35778;BME280;21899;42.662;23.316;2024-03-08T05:35:26;94670.22;;;3.64;78.38
35778;BME280;21899;42.662;23.316;2024-03-08T05:37:52;94684.19;;;3.52;79.89
35778;BME280;21899;42.662;23.316;2024-03-08T05:40:17;94677.13;;;3.46;78.98
35778;BME280;21899;42.662;23.316;2024-03-08T05:42:44;94688.69;;;3.39;79.82
35778;BME280;21899;42.662;23.316;2024-03-08T05:45:10;94691.88;;;3.47;79.74
35778;BME280;21899;42.662;23.316;2024-03-08T05:47:36;94697.78;;;3.54;80.04
35778;BME280;21899;42.662;23.316;2024-03-08T05:50:02;94698.00;;;3.60;79.28
35778;BME280;21899;42.662;23.316;2024-03-08T05:52:27;94673.25;;;3.34;79.79
35778;BME280;21899;42.662;23.316;2024-03-08T05:54:53;94700.59;;;3.63;79.31
35778;BME280;21899;42.662;23.316;2024-03-08T05:57:18;94701.34;;;3.64;79.34
35778;BME280;21899;42.662;23.316;2024-03-08T05:59:44;94710.72;;;3.52;79.61
35778;BME280;21899;42.662;23.316;2024-03-08T06:02:09;94712.13;;;3.57;80.06
35778;BME280;21899;42.662;23.316;2024-03-08T06:04:35;94705.66;;;3.58;80.18
35778;BME280;21899;42.662;23.316;2024-03-08T06:07:00;94700.00;;;3.56;79.67
35778;BME280;21899;42.662;23.316;2024-03-08T06:09:28;94720.59;;;3.68;80.03
35778;BME280;21899;42.662;23.316;2024-03-08T06:11:54;94711.38;;;3.56;80.22
35778;BME280;21899;42.662;23.316;2024-03-08T06:14:20;94712.13;;;3.57;80.52
35778;BME280;21899;42.662;23.316;2024-03-08T06:16:46;94731.38;;;3.61;79.88
35778;BME280;21899;42.662;23.316;2024-03-08T06:19:12;94734.94;;;3.54;80.73
35778;BME280;21899;42.662;23.316;2024-03-08T06:21:38;94735.97;;;3.44;80.82
35778;BME280;21899;42.662;23.316;2024-03-08T06:24:04;94733.81;;;3.39;81.09
35778;BME280;21899;42.662;23.316;2024-03-08T06:26:30;94741.00;;;3.39;80.75
35778;BME280;21899;42.662;23.316;2024-03-08T06:28:56;94735.53;;;3.46;80.82
35778;BME280;21899;42.662;23.316;2024-03-08T06:31:22;94732.72;;;3.53;80.39
35778;BME280;21899;42.662;23.316;2024-03-08T06:33:47;94723.41;;;3.45;80.24
35778;BME280;21899;42.662;23.316;2024-03-08T06:36:18;94741.06;;;3.51;80.11
35778;BME280;21899;42.662;23.316;2024-03-08T06:38:45;94744.16;;;3.50;80.66
35778;BME280;21899;42.662;23.316;2024-03-08T06:41:11;94743.25;;;3.56;80.78
35778;BME280;21899;42.662;23.316;2024-03-08T06:43:43;94745.97;;;3.69;80.77
35778;BME280;21899;42.662;23.316;2024-03-08T06:46:09;94747.53;;;3.83;79.28
35778;BME280;21899;42.662;23.316;2024-03-08T06:48:38;94753.09;;;3.88;79.11
35778;BME280;21899;42.662;23.316;2024-03-08T06:51:04;94750.56;;;3.97;78.19
35778;BME280;21899;42.662;23.316;2024-03-08T06:53:30;94737.19;;;4.01;77.51
35778;BME280;21899;42.662;23.316;2024-03-08T06:55:56;94754.75;;;4.11;76.98
35778;BME280;21899;42.662;23.316;2024-03-08T06:58:22;94750.41;;;4.17;76.54
35778;BME280;21899;42.662;23.316;2024-03-08T07:00:48;94749.72;;;4.29;76.34
35778;BME280;21899;42.662;23.316;2024-03-08T07:03:17;94745.84;;;4.17;75.50
35778;BME280;21899;42.662;23.316;2024-03-08T07:05:43;94759.41;;;4.35;76.54
35778;BME280;21899;42.662;23.316;2024-03-08T07:08:08;94761.84;;;4.30;74.37
35778;BME280;21899;42.662;23.316;2024-03-08T07:10:35;94747.94;;;4.38;73.45
35778;BME280;21899;42.662;23.316;2024-03-08T07:13:02;94736.59;;;4.50;72.72
35778;BME280;21899;42.662;23.316;2024-03-08T07:15:28;94766.28;;;4.62;70.71
35778;BME280;21899;42.662;23.316;2024-03-08T07:17:54;94750.66;;;4.64;70.79
35778;BME280;21899;42.662;23.316;2024-03-08T07:20:20;94766.00;;;4.72;70.92
35778;BME280;21899;42.662;23.316;2024-03-08T07:22:46;94762.47;;;4.63;70.54
35778;BME280;21899;42.662;23.316;2024-03-08T07:25:18;94769.06;;;4.58;70.89
35778;BME280;21899;42.662;23.316;2024-03-08T07:27:43;94768.53;;;4.34;70.79
35778;BME280;21899;42.662;23.316;2024-03-08T07:30:09;94769.22;;;4.38;72.37
35778;BME280;21899;42.662;23.316;2024-03-08T07:32:35;94773.88;;;4.34;71.73
35778;BME280;21899;42.662;23.316;2024-03-08T07:35:01;94773.03;;;4.37;72.21
35778;BME280;21899;42.662;23.316;2024-03-08T07:37:30;94777.44;;;4.57;71.99
35778;BME280;21899;42.662;23.316;2024-03-08T07:39:56;94763.63;;;4.62;70.89
35778;BME280;21899;42.662;23.316;2024-03-08T07:42:23;94772.44;;;4.59;71.08
35778;BME280;21899;42.662;23.316;2024-03-08T07:44:49;94771.88;;;4.80;70.15
35778;BME280;21899;42.662;23.316;2024-03-08T07:47:15;94766.63;;;4.76;69.92
35778;BME280;21899;42.662;23.316;2024-03-08T07:49:42;94765.91;;;4.76;69.28
35778;BME280;21899;42.662;23.316;2024-03-08T07:52:09;94776.00;;;4.81;69.49
35778;BME280;21899;42.662;23.316;2024-03-08T07:54:40;94760.16;;;4.77;70.16
35778;BME280;21899;42.662;23.316;2024-03-08T07:57:06;94757.50;;;4.90;70.72
35778;BME280;21899;42.662;23.316;2024-03-08T07:59:32;94771.25;;;5.26;69.31
35778;BME280;21899;42.662;23.316;2024-03-08T08:01:58;94769.66;;;5.03;69.61
35778;BME280;21899;42.662;23.316;2024-03-08T08:04:24;94779.75;;;5.34;68.98
35778;BME280;21899;42.662;23.316;2024-03-08T08:06:50;94772.31;;;5.16;69.71
35778;BME280;21899;42.662;23.316;2024-03-08T08:09:17;94760.81;;;5.19;69.24
35778;BME280;21899;42.662;23.316;2024-03-08T08:11:56;94773.91;;;5.13;70.78
35778;BME280;21899;42.662;23.316;2024-03-08T08:14:21;94773.81;;;5.17;70.38
35778;BME280;21899;42.662;23.316;2024-03-08T08:16:47;94769.97;;;5.18;69.57
35778;BME280;21899;42.662;23.316;2024-03-08T08:19:14;94771.03;;;5.33;68.71
35778;BME280;21899;42.662;23.316;2024-03-08T08:21:41;94760.59;;;5.39;68.92
35778;BME280;21899;42.662;23.316;2024-03-08T08:24:06;94746.84;;;5.40;68.94
35778;BME280;21899;42.662;23.316;2024-03-08T08:26:32;94762.00;;;5.77;68.41
35778;BME280;21899;42.662;23.316;2024-03-08T08:28:59;94765.13;;;5.76;67.06
35778;BME280;21899;42.662;23.316;2024-03-08T08:31:25;94763.38;;;5.82;66.51
35778;BME280;21899;42.662;23.316;2024-03-08T08:33:50;94759.41;;;5.99;66.50
35778;BME280;21899;42.662;23.316;2024-03-08T08:36:19;94771.81;;;6.27;65.23
35778;BME280;21899;42.662;23.316;2024-03-08T08:38:44;94770.31;;;6.48;63.36
35778;BME280;21899;42.662;23.316;2024-03-08T08:41:11;94765.28;;;6.28;63.95
35778;BME280;21899;42.662;23.316;2024-03-08T08:43:36;94761.56;;;6.26;65.54
35778;BME280;21899;42.662;23.316;2024-03-08T08:46:02;94766.22;;;6.56;63.64
35778;BME280;21899;42.662;23.316;2024-03-08T08:48:28;94744.16;;;6.34;63.77
35778;BME280;21899;42.662;23.316;2024-03-08T08:50:55;94754.44;;;6.66;63.59
35778;BME280;21899;42.662;23.316;2024-03-08T08:53:21;94744.16;;;6.55;62.70
35778;BME280;21899;42.662;23.316;2024-03-08T08:55:47;94757.34;;;6.59;62.70
35778;BME280;21899;42.662;23.316;2024-03-08T08:58:13;94739.94;;;6.24;62.11
35778;BME280;21899;42.662;23.316;2024-03-08T09:00:39;94746.38;;;6.35;62.77
35778;BME280;21899;42.662;23.316;2024-03-08T09:03:05;94757.88;;;6.45;62.68
35778;BME280;21899;42.662;23.316;2024-03-08T09:05:32;94761.41;;;6.42;62.10
35778;BME280;21899;42.662;23.316;2024-03-08T09:07:57;94736.09;;;6.03;62.19
35778;BME280;21899;42.662;23.316;2024-03-08T09:10:23;94757.44;;;6.25;61.64
35778;BME280;21899;42.662;23.316;2024-03-08T09:12:48;94743.50;;;6.30;61.94
35778;BME280;21899;42.662;23.316;2024-03-08T09:15:14;94749.88;;;6.45;60.99
35778;BME280;21899;42.662;23.316;2024-03-08T09:17:40;94751.41;;;6.55;59.80
35778;BME280;21899;42.662;23.316;2024-03-08T09:20:09;94748.19;;;6.60;59.75
35778;BME280;21899;42.662;23.316;2024-03-08T09:22:35;94746.41;;;6.88;59.31
35778;BME280;21899;42.662;23.316;2024-03-08T09:25:01;94748.53;;;7.41;57.69
35778;BME280;21899;42.662;23.316;2024-03-08T09:27:27;94755.75;;;7.72;56.55
35778;BME280;21899;42.662;23.316;2024-03-08T09:29:54;94740.13;;;7.70;56.01
35778;BME280;21899;42.662;23.316;2024-03-08T09:32:20;94749.13;;;8.21;55.33
35778;BME280;21899;42.662;23.316;2024-03-08T09:34:45;94738.28;;;8.43;54.23
35778;BME280;21899;42.662;23.316;2024-03-08T09:37:11;94746.84;;;8.74;53.65
35778;BME280;21899;42.662;23.316;2024-03-08T09:39:36;94754.56;;;8.90;52.21
35778;BME280;21899;42.662;23.316;2024-03-08T09:42:02;94750.84;;;8.88;51.26
35778;BME280;21899;42.662;23.316;2024-03-08T09:44:27;94701.72;;;8.13;52.98
35778;BME280;21899;42.662;23.316;2024-03-08T09:46:55;94729.66;;;7.94;54.61
35778;BME280;21899;42.662;23.316;2024-03-08T09:49:20;94752.34;;;7.71;55.44
35778;BME280;21899;42.662;23.316;2024-03-08T09:51:46;94750.78;;;7.43;55.95
35778;BME280;21899;42.662;23.316;2024-03-08T09:54:13;94752.13;;;7.47;55.65
35778;BME280;21899;42.662;23.316;2024-03-08T09:56:42;94751.72;;;7.58;55.64
35778;BME280;21899;42.662;23.316;2024-03-08T09:59:09;94751.19;;;7.32;55.69
35778;BME280;21899;42.662;23.316;2024-03-08T10:01:53;94747.31;;;6.94;58.37
35778;BME280;21899;42.662;23.316;2024-03-08T10:04:22;94747.97;;;7.07;58.08
35778;BME280;21899;42.662;23.316;2024-03-08T10:06:47;94750.41;;;7.23;57.29
35778;BME280;21899;42.662;23.316;2024-03-08T10:09:14;94740.44;;;7.14;56.94
35778;BME280;21899;42.662;23.316;2024-03-08T10:11:42;94750.34;;;7.44;55.44
35778;BME280;21899;42.662;23.316;2024-03-08T10:14:09;94748.13;;;7.52;54.87
35778;BME280;21899;42.662;23.316;2024-03-08T10:16:36;94720.44;;;7.19;56.28
35778;BME280;21899;42.662;23.316;2024-03-08T10:19:01;94746.47;;;7.36;56.96
35778;BME280;21899;42.662;23.316;2024-03-08T10:21:28;94744.00;;;7.60;56.24
35778;BME280;21899;42.662;23.316;2024-03-08T10:23:53;94752.47;;;7.77;56.21
35778;BME280;21899;42.662;23.316;2024-03-08T10:26:21;94744.75;;;7.70;56.55
35778;BME280;21899;42.662;23.316;2024-03-08T10:28:51;94752.13;;;7.47;56.28
35778;BME280;21899;42.662;23.316;2024-03-08T10:31:17;94751.72;;;7.18;57.67
35778;BME280;21899;42.662;23.316;2024-03-08T10:33:44;94741.84;;;6.97;58.08
35778;BME280;21899;42.662;23.316;2024-03-08T10:36:11;94750.13;;;6.90;57.94
35778;BME280;21899;42.662;23.316;2024-03-08T10:38:41;94747.13;;;7.19;56.76
35778;BME280;21899;42.662;23.316;2024-03-08T10:41:09;94714.59;;;7.11;56.88
35778;BME280;21899;42.662;23.316;2024-03-08T10:44:01;94721.72;;;7.05;57.02
35778;BME280;21899;42.662;23.316;2024-03-08T10:47:05;94733.38;;;7.29;55.61
35778;BME280;21899;42.662;23.316;2024-03-08T10:49:48;94733.13;;;7.45;55.09
35778;BME280;21899;42.662;23.316;2024-03-08T10:52:16;94723.69;;;7.81;54.30
35778;BME280;21899;42.662;23.316;2024-03-08T10:54:43;94690.72;;;7.84;54.18
35778;BME280;21899;42.662;23.316;2024-03-08T10:57:12;94700.81;;;8.25;52.86
35778;BME280;21899;42.662;23.316;2024-03-08T10:59:38;94713.97;;;8.74;51.64
35778;BME280;21899;42.662;23.316;2024-03-08T11:02:04;94713.25;;;9.15;51.98
35778;BME280;21899;42.662;23.316;2024-03-08T11:04:31;94713.13;;;9.10;50.35
35778;BME280;21899;42.662;23.316;2024-03-08T11:07:02;94699.75;;;9.10;50.79
35778;BME280;21899;42.662;23.316;2024-03-08T11:09:35;94705.13;;;9.00;50.31
35778;BME280;21899;42.662;23.316;2024-03-08T11:14:48;94673.00;;;8.50;51.14
35778;BME280;21899;42.662;23.316;2024-03-08T11:20:09;94698.72;;;8.38;52.08
35778;BME280;21899;42.662;23.316;2024-03-08T11:22:41;94697.16;;;8.73;52.11
35778;BME280;21899;42.662;23.316;2024-03-08T11:25:36;94691.94;;;9.21;50.92
35778;BME280;21899;42.662;23.316;2024-03-08T11:28:18;94693.56;;;9.51;49.72
35778;BME280;21899;42.662;23.316;2024-03-08T11:33:35;94675.94;;;9.02;50.13
35778;BME280;21899;42.662;23.316;2024-03-08T11:38:40;94676.16;;;8.30;52.74
35778;BME280;21899;42.662;23.316;2024-03-08T11:41:06;94691.00;;;8.04;53.05
35778;BME280;21899;42.662;23.316;2024-03-08T11:43:32;94676.47;;;7.78;54.03
35778;BME280;21899;42.662;23.316;2024-03-08T11:46:10;94689.97;;;7.83;54.14
35778;BME280;21899;42.662;23.316;2024-03-08T11:48:40;94684.78;;;7.80;53.98
35778;BME280;21899;42.662;23.316;2024-03-08T11:51:12;94683.88;;;7.74;53.30
35778;BME280;21899;42.662;23.316;2024-03-08T11:53:39;94680.13;;;7.53;54.34
35778;BME280;21899;42.662;23.316;2024-03-08T11:56:12;94687.84;;;7.51;54.24
35778;BME280;21899;42.662;23.316;2024-03-08T11:58:39;94665.84;;;7.29;54.38
35778;BME280;21899;42.662;23.316;2024-03-08T12:01:11;94684.41;;;7.41;54.60
35778;BME280;21899;42.662;23.316;2024-03-08T12:03:42;94672.28;;;7.86;53.19
35778;BME280;21899;42.662;23.316;2024-03-08T12:06:08;94672.88;;;8.17;52.15
35778;BME280;21899;42.662;23.316;2024-03-08T12:08:37;94675.22;;;8.51;50.07
35778;BME280;21899;42.662;23.316;2024-03-08T12:11:06;94673.06;;;8.73;49.42
35778;BME280;21899;42.662;23.316;2024-03-08T12:13:35;94671.53;;;8.90;49.89
35778;BME280;21899;42.662;23.316;2024-03-08T12:16:04;94665.50;;;8.72;49.78
35778;BME280;21899;42.662;23.316;2024-03-08T12:18:34;94684.75;;;8.43;50.05
35778;BME280;21899;42.662;23.316;2024-03-08T12:21:13;94685.97;;;7.70;51.45
35778;BME280;21899;42.662;23.316;2024-03-08T12:24:09;94675.13;;;7.91;51.57
35778;BME280;21899;42.662;23.316;2024-03-08T12:26:37;94670.94;;;7.45;53.54
35778;BME280;21899;42.662;23.316;2024-03-08T12:29:25;94675.81;;;7.46;53.50
35778;BME280;21899;42.662;23.316;2024-03-08T12:31:57;94671.69;;;7.64;52.41
35778;BME280;21899;42.662;23.316;2024-03-08T12:34:24;94665.75;;;7.69;52.42
35778;BME280;21899;42.662;23.316;2024-03-08T12:36:51;94666.91;;;7.40;52.74
35778;BME280;21899;42.662;23.316;2024-03-08T12:39:18;94669.63;;;7.68;52.23
35778;BME280;21899;42.662;23.316;2024-03-08T12:41:48;94653.88;;;7.79;51.83
35778;BME280;21899;42.662;23.316;2024-03-08T12:44:13;94658.47;;;7.96;52.46
35778;BME280;21899;42.662;23.316;2024-03-08T12:46:39;94659.19;;;8.24;51.38
35778;BME280;21899;42.662;23.316;2024-03-08T12:49:10;94659.50;;;8.44;51.28
35778;BME280;21899;42.662;23.316;2024-03-08T12:51:38;94647.81;;;8.65;51.92
35778;BME280;21899;42.662;23.316;2024-03-08T12:54:07;94647.53;;;8.63;51.82
35778;BME280;21899;42.662;23.316;2024-03-08T12:56:34;94654.00;;;8.30;51.78
35778;BME280;21899;42.662;23.316;2024-03-08T12:59:00;94631.91;;;7.75;52.88
35778;BME280;21899;42.662;23.316;2024-03-08T13:01:26;94653.09;;;7.42;54.46
35778;BME280;21899;42.662;23.316;2024-03-08T13:03:55;94643.28;;;6.72;56.17
35778;BME280;21899;42.662;23.316;2024-03-08T13:06:21;94661.13;;;6.84;55.91
35778;BME280;21899;42.662;23.316;2024-03-08T13:08:52;94665.75;;;6.93;56.42
35778;BME280;21899;42.662;23.316;2024-03-08T13:11:19;94656.28;;;7.01;55.49